createdAt,value
2023-02-24T00:00:47.229Z,5.60
2023-02-24T00:03:15.791Z,6.18
2023-02-24T00:05:44.593Z,4.85
2023-02-24T00:08:14.431Z,4.78
2023-02-24T00:10:42.826Z,4.85
2023-02-24T00:13:12.306Z,4.78
2023-02-24T00:15:40.835Z,5.60
2023-02-24T00:18:09.528Z,5.47
2023-02-24T00:20:37.983Z,6.13
2023-02-24T00:23:06.396Z,4.45
2023-02-24T00:25:36.190Z,4.65
2023-02-24T00:28:04.582Z,5.07
2023-02-24T00:30:33.291Z,4.47
2023-02-24T00:33:03.685Z,4.30
2023-02-24T00:35:32.235Z,4.22
2023-02-24T00:38:00.938Z,4.90
2023-02-24T00:40:30.721Z,5.03
2023-02-24T00:43:00.636Z,4.78
2023-02-24T00:45:30.931Z,4.25
2023-02-24T00:47:59.431Z,4.75
2023-02-24T00:50:27.885Z,4.57
2023-02-24T00:52:56.299Z,4.07
2023-02-24T00:55:24.908Z,4.00
2023-02-24T00:57:53.336Z,4.30
2023-02-24T01:00:24.150Z,4.60
2023-02-24T01:02:52.655Z,4.90
2023-02-24T01:05:21.314Z,4.57
2023-02-24T01:07:49.763Z,4.05
2023-02-24T01:10:22.268Z,4.70
2023-02-24T01:12:49.985Z,3.53
2023-02-24T01:15:20.404Z,4.45
2023-02-24T01:17:50.443Z,4.80
2023-02-24T01:20:19.509Z,4.35
2023-02-24T01:22:48.854Z,5.45
2023-02-24T01:25:17.871Z,4.95
2023-02-24T01:27:46.332Z,4.15
2023-02-24T01:30:16.201Z,4.82
2023-02-24T01:32:46.641Z,5.38
2023-02-24T01:35:17.723Z,4.55
2023-02-24T01:37:46.395Z,6.03
2023-02-24T01:40:20.946Z,6.03
2023-02-24T01:42:49.659Z,6.15
2023-02-24T01:45:21.421Z,6.55
2023-02-24T01:47:50.727Z,7.05
2023-02-24T01:50:22.874Z,6.82
2023-02-24T01:52:56.193Z,7.97
2023-02-24T01:55:29.161Z,8.25
2023-02-24T01:57:58.404Z,8.15
2023-02-24T02:00:37.670Z,8.90
2023-02-24T02:03:19.651Z,7.72
2023-02-24T02:05:49.542Z,6.70
2023-02-24T02:08:18.808Z,7.38
2023-02-24T02:10:47.829Z,5.50
2023-02-24T02:13:20.988Z,6.13
2023-02-24T02:15:56.865Z,5.38
2023-02-24T02:18:31.195Z,6.10
2023-02-24T02:21:19.783Z,5.47
2023-02-24T02:23:57.891Z,5.40
2023-02-24T02:26:40.479Z,4.70
2023-02-24T02:29:26.708Z,4.57
2023-02-24T02:32:07.003Z,3.90
2023-02-24T02:34:42.605Z,3.83
2023-02-24T02:37:13.933Z,3.80
2023-02-24T02:39:49.872Z,2.92
2023-02-24T02:42:24.320Z,2.63
2023-02-24T02:44:56.075Z,3.53
2023-02-24T02:47:27.189Z,3.30
2023-02-24T02:50:00.701Z,3.10
2023-02-24T02:52:31.889Z,3.53
2023-02-24T02:55:02.758Z,2.95
2023-02-24T02:57:32.306Z,3.28
2023-02-24T03:00:01.785Z,3.85
2023-02-24T03:02:31.698Z,3.50
2023-02-24T03:05:02.938Z,2.90
2023-02-24T03:07:34.953Z,3.70
2023-02-24T03:10:10.714Z,2.88
2023-02-24T03:12:40.890Z,3.00
2023-02-24T03:15:11.757Z,3.50
2023-02-24T03:17:42.022Z,4.03
2023-02-24T03:20:17.622Z,3.90
2023-02-24T03:22:49.920Z,4.78
2023-02-24T03:25:18.688Z,4.85
2023-02-24T03:27:49.615Z,4.82
2023-02-24T03:30:21.186Z,4.93
2023-02-24T03:32:56.098Z,4.00
2023-02-24T03:35:28.175Z,5.28
2023-02-24T03:37:57.821Z,3.83
2023-02-24T03:40:33.238Z,4.60
2023-02-24T03:43:05.424Z,4.13
2023-02-24T03:45:37.934Z,4.35
2023-02-24T03:48:07.488Z,3.55
2023-02-24T03:50:38.343Z,4.00
2023-02-24T03:53:13.757Z,4.63
2023-02-24T03:55:47.827Z,4.78
2023-02-24T03:58:19.735Z,4.25
2023-02-24T04:00:50.208Z,4.22
2023-02-24T04:03:25.761Z,3.60
2023-02-24T04:06:00.736Z,4.07
2023-02-24T04:08:31.078Z,4.13
2023-02-24T04:11:05.759Z,3.97
2023-02-24T04:13:37.524Z,4.88
2023-02-24T04:16:11.393Z,4.30
2023-02-24T04:18:41.677Z,4.13
2023-02-24T04:21:11.700Z,4.90
2023-02-24T04:23:42.084Z,4.95
2023-02-24T04:26:12.753Z,5.30
2023-02-24T04:28:42.326Z,4.03
2023-02-24T04:31:16.918Z,4.47
2023-02-24T04:33:50.287Z,5.57
2023-02-24T04:36:20.459Z,4.88
2023-02-24T04:38:49.293Z,4.47
2023-02-24T04:41:21.528Z,4.65
2023-02-24T04:43:50.939Z,4.07
2023-02-24T04:46:19.938Z,4.10
2023-02-24T04:48:48.421Z,5.65
2023-02-24T04:51:16.833Z,4.57
2023-02-24T04:53:46.816Z,4.88
2023-02-24T04:56:15.246Z,5.05
2023-02-24T04:58:46.393Z,4.78
2023-02-24T05:01:15.411Z,5.13
2023-02-24T05:03:43.889Z,5.65
2023-02-24T05:06:16.107Z,5.38
2023-02-24T05:08:46.297Z,4.78
2023-02-24T05:11:17.041Z,4.53
2023-02-24T05:13:47.158Z,4.65
2023-02-24T05:16:16.713Z,4.68
2023-02-24T05:18:45.626Z,5.10
2023-02-24T05:21:32.459Z,4.60
2023-02-24T05:24:06.648Z,5.07
2023-02-24T05:26:37.322Z,6.05
2023-02-24T05:29:07.329Z,6.05
2023-02-24T05:31:37.025Z,6.00
2023-02-24T05:34:06.735Z,6.30
2023-02-24T05:36:36.591Z,6.53
2023-02-24T05:39:07.779Z,6.28
2023-02-24T05:41:38.211Z,6.32
2023-02-24T05:44:08.697Z,6.55
2023-02-24T05:46:38.262Z,6.70
2023-02-24T05:49:09.206Z,6.00
2023-02-24T05:51:39.142Z,5.38
2023-02-24T05:54:10.401Z,6.10
2023-02-24T05:56:40.341Z,5.80
2023-02-24T05:59:10.837Z,5.47
2023-02-24T06:01:41.693Z,6.72
2023-02-24T06:04:11.009Z,5.03
2023-02-24T06:06:40.044Z,5.05
2023-02-24T06:09:12.667Z,4.82
2023-02-24T06:11:42.311Z,5.00
2023-02-24T06:14:11.101Z,5.80
2023-02-24T06:16:41.050Z,5.72
2023-02-24T06:19:10.147Z,5.28
2023-02-24T06:21:41.346Z,5.20
2023-02-24T06:24:14.499Z,5.32
2023-02-24T06:26:44.154Z,5.22
2023-02-24T06:29:14.897Z,5.78
2023-02-24T06:31:43.845Z,5.70
2023-02-24T06:34:13.159Z,5.65
2023-02-24T06:36:43.132Z,5.78
2023-02-24T06:39:14.647Z,5.03
2023-02-24T06:41:43.642Z,4.78
2023-02-24T06:44:12.363Z,5.15
2023-02-24T06:46:41.329Z,4.35
2023-02-24T06:49:11.616Z,4.05
2023-02-24T06:54:22.428Z,4.38
2023-02-24T06:56:50.858Z,4.20
2023-02-24T06:59:21.824Z,4.60
2023-02-24T07:01:50.731Z,4.57
2023-02-24T07:04:20.464Z,3.60
2023-02-24T07:06:52.234Z,3.58
2023-02-24T07:09:22.753Z,4.25
2023-02-24T07:11:52.996Z,3.47
2023-02-24T07:14:22.198Z,3.65
2023-02-24T07:16:55.077Z,2.97
2023-02-24T07:19:24.943Z,3.38
2023-02-24T07:22:00.044Z,3.10
2023-02-24T07:24:36.012Z,3.30
2023-02-24T07:27:05.446Z,3.50
2023-02-24T07:29:34.502Z,3.75
2023-02-24T07:32:05.593Z,3.67
2023-02-24T07:34:34.905Z,2.50
2023-02-24T07:37:08.082Z,2.60
2023-02-24T07:39:39.211Z,3.03
2023-02-24T07:42:08.201Z,3.03
2023-02-24T07:44:36.731Z,2.92
2023-02-24T07:47:08.085Z,3.15
2023-02-24T07:49:36.973Z,3.63
2023-02-24T07:52:08.202Z,3.65
2023-02-24T07:54:39.593Z,3.80
2023-02-24T07:57:13.775Z,3.78
2023-02-24T07:59:45.509Z,3.55
2023-02-24T08:02:14.196Z,3.15
2023-02-24T08:04:50.009Z,2.53
2023-02-24T08:07:24.279Z,3.45
2023-02-24T08:10:12.406Z,3.20
2023-02-24T08:12:42.818Z,2.90
2023-02-24T08:15:18.123Z,3.55
2023-02-24T08:17:47.839Z,3.10
2023-02-24T08:20:30.084Z,2.97
2023-02-24T08:22:58.686Z,3.00
2023-02-24T08:25:35.831Z,3.00
2023-02-24T08:28:09.207Z,3.08
2023-02-24T08:30:40.276Z,3.75
2023-02-24T08:33:10.026Z,3.28
2023-02-24T08:35:39.356Z,3.42
2023-02-24T08:38:08.799Z,4.38
2023-02-24T08:40:50.176Z,4.63
2023-02-24T08:43:24.929Z,4.97
2023-02-24T08:45:56.652Z,4.70
2023-02-24T08:48:37.398Z,5.32
2023-02-24T08:51:08.222Z,5.57
2023-02-24T08:53:40.381Z,4.78
2023-02-24T08:56:11.610Z,4.57
2023-02-24T08:58:47.307Z,4.18
2023-02-24T09:01:24.132Z,4.75
2023-02-24T09:03:54.068Z,5.07
2023-02-24T09:06:25.529Z,4.65
2023-02-24T09:09:16.183Z,4.40
2023-02-24T09:11:46.703Z,3.90
2023-02-24T09:14:26.404Z,3.92
2023-02-24T09:17:03.733Z,3.38
2023-02-24T09:20:02.153Z,3.40
2023-02-24T09:22:57.279Z,3.83
2023-02-24T09:25:40.379Z,5.53
2023-02-24T09:28:16.995Z,4.28
2023-02-24T09:30:53.485Z,3.13
2023-02-24T09:33:23.578Z,3.63
2023-02-24T09:36:03.074Z,3.65
2023-02-24T09:39:08.040Z,4.15
2023-02-24T09:41:51.825Z,3.42
2023-02-24T09:44:24.493Z,2.97
2023-02-24T09:46:54.800Z,3.33
2023-02-24T09:49:25.740Z,3.28
2023-02-24T09:52:00.551Z,3.20
2023-02-24T09:54:33.004Z,2.90
2023-02-24T09:57:09.261Z,3.47
2023-02-24T10:00:01.270Z,3.35
2023-02-24T10:02:44.156Z,3.00
2023-02-24T10:05:19.605Z,2.92
2023-02-24T10:07:48.492Z,3.30
2023-02-24T10:10:28.129Z,3.58
2023-02-24T10:12:59.927Z,3.08
2023-02-24T10:15:49.911Z,3.80
2023-02-24T10:18:27.281Z,3.73
2023-02-24T10:20:59.320Z,2.80
2023-02-24T10:23:33.064Z,3.00
2023-02-24T10:26:07.730Z,3.10
2023-02-24T10:28:43.948Z,3.55
2023-02-24T10:31:26.320Z,2.95
2023-02-24T10:33:57.849Z,2.97
2023-02-24T10:36:35.224Z,3.10
2023-02-24T10:39:11.161Z,3.33
2023-02-24T10:41:47.350Z,3.45
2023-02-24T10:44:24.152Z,3.33
2023-02-24T10:47:12.420Z,3.50
2023-02-24T10:49:56.804Z,3.92
2023-02-24T10:52:51.021Z,3.35
2023-02-24T10:55:29.049Z,4.18
2023-02-24T10:58:07.015Z,3.80
2023-02-24T11:01:13.117Z,3.70
2023-02-24T11:04:01.093Z,3.80
2023-02-24T11:06:55.596Z,4.13
2023-02-24T11:09:35.236Z,3.83
2023-02-24T11:12:24.954Z,4.20
2023-02-24T11:15:12.205Z,4.43
2023-02-24T11:17:48.112Z,4.77
2023-02-24T11:20:24.144Z,4.17
2023-02-24T11:22:55.952Z,4.18
2023-02-24T11:25:26.283Z,4.47
2023-02-24T11:27:56.531Z,3.92
2023-02-24T11:30:29.377Z,4.43
2023-02-24T11:33:10.480Z,5.30
2023-02-24T11:35:45.937Z,4.95
2023-02-24T11:38:26.967Z,4.03
2023-02-24T11:41:00.888Z,4.50
2023-02-24T11:43:30.191Z,5.13
2023-02-24T11:46:01.260Z,5.47
2023-02-24T11:48:32.221Z,5.55
2023-02-24T11:51:04.008Z,5.03
2023-02-24T11:53:36.422Z,5.30
2023-02-24T11:56:06.969Z,4.75
2023-02-24T11:58:39.750Z,5.00
2023-02-24T12:01:15.961Z,5.68
2023-02-24T12:03:49.259Z,4.37
2023-02-24T12:06:21.590Z,5.47
2023-02-24T12:08:53.770Z,5.10
2023-02-24T12:11:28.240Z,4.95
2023-02-24T12:14:01.744Z,5.18
2023-02-24T12:16:33.801Z,4.57
2023-02-24T12:19:06.562Z,3.63
2023-02-24T12:21:41.854Z,4.65
2023-02-24T12:24:12.633Z,5.07
2023-02-24T12:26:47.930Z,5.00
2023-02-24T12:29:29.912Z,5.07
2023-02-24T12:32:03.533Z,4.45
2023-02-24T12:34:37.705Z,4.78
2023-02-24T12:37:21.792Z,4.53
2023-02-24T12:39:54.900Z,4.68
2023-02-24T12:42:28.949Z,5.47
2023-02-24T12:45:03.074Z,5.15
2023-02-24T12:47:39.576Z,5.35
2023-02-24T12:50:22.653Z,6.10
2023-02-24T12:52:56.619Z,5.60
2023-02-24T12:55:27.650Z,6.27
2023-02-24T12:57:59.943Z,5.90
2023-02-24T13:00:32.923Z,6.97
2023-02-24T13:03:06.751Z,6.47
2023-02-24T13:05:39.465Z,6.90
2023-02-24T13:08:16.743Z,7.10
2023-02-24T13:10:48.710Z,6.50
2023-02-24T13:13:20.053Z,6.95
2023-02-24T13:15:51.860Z,6.78
2023-02-24T13:18:27.004Z,7.68
2023-02-24T13:21:05.859Z,7.03
2023-02-24T13:23:35.772Z,7.20
2023-02-24T13:26:04.857Z,7.13
2023-02-24T13:28:36.068Z,7.65
2023-02-24T13:31:06.087Z,7.95
2023-02-24T13:33:35.544Z,7.80
2023-02-24T13:36:09.022Z,8.68
2023-02-24T13:38:40.144Z,8.82
2023-02-24T13:41:10.343Z,7.22
2023-02-24T13:43:38.750Z,7.03
2023-02-24T13:46:19.158Z,6.78
2023-02-24T13:48:52.026Z,7.43
2023-02-24T13:51:37.399Z,8.02
2023-02-24T13:54:15.575Z,7.57
2023-02-24T13:56:45.998Z,7.70
2023-02-24T13:59:25.195Z,8.57
2023-02-24T14:01:58.802Z,8.20
2023-02-24T14:04:29.666Z,7.97
2023-02-24T14:07:00.356Z,7.80
2023-02-24T14:09:32.634Z,8.75
2023-02-24T14:12:02.820Z,9.57
2023-02-24T14:14:31.733Z,7.88
2023-02-24T14:17:00.379Z,8.80
2023-02-24T14:19:28.804Z,8.82
2023-02-24T14:21:58.199Z,8.75
2023-02-24T14:24:28.264Z,9.45
2023-02-24T14:26:59.109Z,8.55
2023-02-24T14:29:32.002Z,9.73
2023-02-24T14:32:01.052Z,9.10
2023-02-24T14:34:30.707Z,10.25
2023-02-24T14:36:59.994Z,10.02
2023-02-24T14:39:30.209Z,10.13
2023-02-24T14:42:12.540Z,10.55
2023-02-24T14:44:43.665Z,10.00
2023-02-24T14:47:14.378Z,10.13
2023-02-24T14:49:43.491Z,11.00
2023-02-24T14:52:13.132Z,9.95
2023-02-24T14:54:45.543Z,11.30
2023-02-24T14:57:18.281Z,11.38
2023-02-24T14:59:48.391Z,11.07
2023-02-24T15:02:19.649Z,11.82
2023-02-24T15:04:48.621Z,11.10
2023-02-24T15:07:19.319Z,11.77
2023-02-24T15:09:49.154Z,11.57
2023-02-24T15:12:25.120Z,11.48
2023-02-24T15:14:55.398Z,11.88
2023-02-24T15:17:24.466Z,10.75
2023-02-24T15:19:55.673Z,12.02
2023-02-24T15:22:25.497Z,11.00
2023-02-24T15:24:55.820Z,10.73
2023-02-24T15:27:32.922Z,11.00
2023-02-24T15:30:02.910Z,11.05
2023-02-24T15:32:32.990Z,9.85
2023-02-24T15:35:01.719Z,11.43
2023-02-24T15:37:31.317Z,10.43
2023-02-24T15:40:04.772Z,10.48
2023-02-24T15:42:35.665Z,9.60
2023-02-24T15:45:05.552Z,10.98
2023-02-24T15:47:42.752Z,10.73
2023-02-24T15:50:11.800Z,10.48
2023-02-24T15:52:41.172Z,11.20
2023-02-24T15:55:12.180Z,12.15
2023-02-24T15:57:42.029Z,12.45
2023-02-24T16:00:13.288Z,10.90
2023-02-24T16:02:42.399Z,11.52
2023-02-24T16:05:14.367Z,11.25
2023-02-24T16:07:45.236Z,11.32
2023-02-24T16:10:18.342Z,11.00
2023-02-24T16:12:50.506Z,11.55
2023-02-24T16:15:21.185Z,11.60
2023-02-24T16:17:49.820Z,8.07
2023-02-24T16:20:19.607Z,7.93
2023-02-24T16:22:48.064Z,7.40
2023-02-24T16:25:17.278Z,7.53
2023-02-24T16:27:45.712Z,6.75
2023-02-24T16:30:22.134Z,6.90
2023-02-24T16:32:51.249Z,7.15
2023-02-24T16:35:20.055Z,8.02
2023-02-24T16:37:49.241Z,7.63
2023-02-24T16:40:21.351Z,8.43
2023-02-24T16:42:50.012Z,8.52
2023-02-24T16:45:19.854Z,6.55
2023-02-24T16:47:48.761Z,6.88
2023-02-24T16:50:22.802Z,6.15
2023-02-24T16:52:51.342Z,5.45
2023-02-24T16:55:20.176Z,6.90
2023-02-24T16:57:48.810Z,7.57
2023-02-24T17:00:18.337Z,6.72
2023-02-24T17:02:48.275Z,6.60
2023-02-24T17:05:21.210Z,6.88
2023-02-24T17:07:50.310Z,6.20
2023-02-24T17:10:19.397Z,6.57
2023-02-24T17:12:47.856Z,7.45
2023-02-24T17:15:17.566Z,7.95
2023-02-24T17:17:46.100Z,8.82
2023-02-24T17:20:16.881Z,7.15
2023-02-24T17:22:45.868Z,7.97
2023-02-24T17:25:16.306Z,8.07
2023-02-24T17:27:44.740Z,8.48
2023-02-24T17:30:14.502Z,8.15
2023-02-24T17:32:43.032Z,8.38
2023-02-24T17:35:12.403Z,8.18
2023-02-24T17:37:42.220Z,7.10
2023-02-24T17:40:11.352Z,7.25
2023-02-24T17:42:39.806Z,6.70
2023-02-24T17:45:09.357Z,6.75
2023-02-24T17:47:38.031Z,6.95
2023-02-24T17:50:08.979Z,5.72
2023-02-24T17:52:38.007Z,7.00
2023-02-24T17:55:08.503Z,6.18
2023-02-24T17:57:37.314Z,6.03
2023-02-24T18:00:06.329Z,6.10
2023-02-24T18:02:34.866Z,5.63
2023-02-24T18:05:03.319Z,4.82
2023-02-24T18:07:34.680Z,5.43
2023-02-24T18:10:03.190Z,5.30
2023-02-24T18:12:33.054Z,5.60
2023-02-24T18:15:08.672Z,4.72
2023-02-24T18:17:37.395Z,4.88
2023-02-24T18:20:06.070Z,3.88
2023-02-24T18:22:34.526Z,4.30
2023-02-24T18:25:02.980Z,3.83
2023-02-24T18:27:32.844Z,3.67
2023-02-24T18:30:01.383Z,3.78
2023-02-24T18:32:30.025Z,4.05
2023-02-24T18:34:58.544Z,4.85
2023-02-24T18:37:26.965Z,3.60
2023-02-24T18:39:55.489Z,3.63
2023-02-24T18:42:23.989Z,3.20
2023-02-24T18:44:53.825Z,4.07
2023-02-24T18:47:22.265Z,4.70
2023-02-24T18:49:50.673Z,3.90
2023-02-24T18:52:19.171Z,3.40
2023-02-24T18:54:48.518Z,3.60
2023-02-24T18:57:16.983Z,3.47
2023-02-24T18:59:45.480Z,2.60
2023-02-24T19:02:15.294Z,2.85
2023-02-24T19:04:45.104Z,2.42
2023-02-24T19:07:13.632Z,2.85
2023-02-24T19:09:42.718Z,2.50
2023-02-24T19:12:11.277Z,3.17
2023-02-24T19:14:39.718Z,3.33
2023-02-24T19:17:08.182Z,3.53
2023-02-24T19:19:38.097Z,2.75
2023-02-24T19:22:06.538Z,2.40
2023-02-24T19:24:34.993Z,2.85
2023-02-24T19:27:03.438Z,2.65
2023-02-24T19:29:31.903Z,2.83
2023-02-24T19:32:00.513Z,2.70
2023-02-24T19:34:29.113Z,2.63
2023-02-24T19:36:59.036Z,2.30
2023-02-24T19:39:27.541Z,2.00
2023-02-24T19:41:57.537Z,2.53
2023-02-24T19:44:25.979Z,3.15
2023-02-24T19:46:54.514Z,2.33
2023-02-24T19:49:22.979Z,2.30
2023-02-24T19:51:56.632Z,3.05
2023-02-24T19:54:27.941Z,3.13
2023-02-24T19:56:57.999Z,3.67
2023-02-24T19:59:26.760Z,3.22
2023-02-24T20:01:55.436Z,3.70
2023-02-24T20:04:24.986Z,2.67
2023-02-24T20:06:53.451Z,3.80
2023-02-24T20:09:22.277Z,3.75
2023-02-24T20:11:54.393Z,3.40
2023-02-24T20:14:22.795Z,3.72
2023-02-24T20:16:51.301Z,3.50
2023-02-24T20:19:19.744Z,2.80
2023-02-24T20:21:48.703Z,3.33
2023-02-24T20:24:18.376Z,3.40
2023-02-24T20:26:47.959Z,2.88
2023-02-24T20:29:19.063Z,2.75
2023-02-24T20:31:47.807Z,1.98
2023-02-24T20:34:16.935Z,2.92
2023-02-24T20:36:45.601Z,2.83
2023-02-24T20:39:14.080Z,2.63
2023-02-24T20:41:42.921Z,2.90
2023-02-24T20:44:11.874Z,2.92
2023-02-24T20:46:41.926Z,2.95
2023-02-24T20:49:11.314Z,3.20
2023-02-24T20:51:40.071Z,3.13
2023-02-24T20:54:09.285Z,3.50
2023-02-24T20:56:39.200Z,3.25
2023-02-24T20:59:08.631Z,3.35
2023-02-24T21:01:37.875Z,2.60
2023-02-24T21:04:08.009Z,3.25
2023-02-24T21:06:37.092Z,3.80
2023-02-24T21:09:06.152Z,3.20
2023-02-24T21:11:35.091Z,3.42
2023-02-24T21:14:04.251Z,3.85
2023-02-24T21:16:32.717Z,3.97
2023-02-24T21:19:01.184Z,4.13
2023-02-24T21:21:31.472Z,2.95
2023-02-24T21:24:00.067Z,3.17
2023-02-24T21:26:29.295Z,3.45
2023-02-24T21:28:59.303Z,3.50
2023-02-24T21:31:28.448Z,5.03
2023-02-24T21:33:57.524Z,4.03
2023-02-24T21:36:28.110Z,4.43
2023-02-24T21:38:57.981Z,3.72
2023-02-24T21:41:26.473Z,3.30
2023-02-24T21:43:55.909Z,3.40
2023-02-24T21:46:28.261Z,4.00
2023-02-24T21:48:57.024Z,4.50
2023-02-24T21:51:25.990Z,3.97
2023-02-24T21:53:56.057Z,4.32
2023-02-24T21:56:26.836Z,3.53
2023-02-24T21:58:58.257Z,4.07
2023-02-24T22:01:28.172Z,4.07
2023-02-24T22:03:57.260Z,4.70
2023-02-24T22:06:30.276Z,3.50
2023-02-24T22:08:59.832Z,3.87
2023-02-24T22:11:31.333Z,3.47
2023-02-24T22:13:59.779Z,3.80
2023-02-24T22:16:28.443Z,3.60
2023-02-24T22:18:57.050Z,3.67
2023-02-24T22:21:26.817Z,5.37
2023-02-24T22:23:56.262Z,4.17
2023-02-24T22:26:25.713Z,3.60
2023-02-24T22:28:55.806Z,3.63
2023-02-24T22:31:25.440Z,4.07
2023-02-24T22:33:53.989Z,3.30
2023-02-24T22:36:24.690Z,2.88
2023-02-24T22:38:53.547Z,2.95
2023-02-24T22:41:23.262Z,3.37
2023-02-24T22:43:51.803Z,3.42
2023-02-24T22:46:23.236Z,3.28
2023-02-24T22:48:52.069Z,2.80
2023-02-24T22:51:20.701Z,3.03
2023-02-24T22:53:49.994Z,3.97
2023-02-24T22:56:19.528Z,3.60
2023-02-24T22:58:48.150Z,3.70
2023-02-24T23:01:17.714Z,3.95
2023-02-24T23:03:47.559Z,3.87
2023-02-24T23:06:16.869Z,3.60
2023-02-24T23:08:46.981Z,4.17
2023-02-24T23:11:16.069Z,3.58
2023-02-24T23:13:45.627Z,3.40
2023-02-24T23:16:15.298Z,3.97
2023-02-24T23:18:48.510Z,3.67
2023-02-24T23:21:19.274Z,3.42
2023-02-24T23:23:47.734Z,3.53
2023-02-24T23:26:18.059Z,3.10
2023-02-24T23:28:46.568Z,3.42
2023-02-24T23:31:19.241Z,3.67
2023-02-24T23:33:47.707Z,2.97
2023-02-24T23:36:16.826Z,2.53
2023-02-24T23:38:46.689Z,2.97
2023-02-24T23:41:15.582Z,2.53
2023-02-24T23:43:44.097Z,3.30
2023-02-24T23:46:13.720Z,3.63
2023-02-24T23:48:42.282Z,3.67
2023-02-24T23:51:12.545Z,2.50
2023-02-24T23:53:41.604Z,3.00
2023-02-24T23:56:12.623Z,3.60
2023-02-24T23:58:41.097Z,3.20
